createdAt,value
2023-02-02T00:01:41.391Z,7.47
2023-02-02T00:04:16.668Z,7.56
2023-02-02T00:06:45.958Z,7.81
2023-02-02T00:09:17.251Z,7.98
2023-02-02T00:11:47.275Z,7.86
2023-02-02T00:14:15.891Z,7.94
2023-02-02T00:16:50.238Z,7.95
2023-02-02T00:19:30.265Z,7.95
2023-02-02T00:21:59.186Z,7.74
2023-02-02T00:24:27.262Z,7.76
2023-02-02T00:26:58.510Z,7.57
2023-02-02T00:29:31.708Z,7.81
2023-02-02T00:31:59.824Z,7.67
2023-02-02T00:34:27.865Z,7.58
2023-02-02T00:36:55.953Z,7.71
2023-02-02T00:39:26.342Z,7.76
2023-02-02T00:41:55.572Z,7.92
2023-02-02T00:44:42.320Z,8.15
2023-02-02T00:47:10.666Z,8.04
2023-02-02T00:49:38.309Z,7.86
2023-02-02T00:52:06.212Z,7.76
2023-02-02T00:54:34.053Z,7.76
2023-02-02T00:57:01.876Z,7.67
2023-02-02T00:59:29.711Z,7.81
2023-02-02T01:01:57.605Z,7.61
2023-02-02T01:04:25.258Z,7.68
2023-02-02T01:06:52.816Z,7.59
2023-02-02T01:09:20.423Z,7.57
2023-02-02T01:11:48.843Z,7.64
2023-02-02T01:14:16.566Z,7.97
2023-02-02T01:16:44.526Z,7.74
2023-02-02T01:19:16.821Z,7.62
2023-02-02T01:21:44.669Z,7.85
2023-02-02T01:24:12.396Z,7.63
2023-02-02T01:26:40.447Z,7.68
2023-02-02T01:29:08.134Z,7.71
2023-02-02T01:31:35.964Z,7.85
2023-02-02T01:34:03.691Z,7.78
2023-02-02T01:36:31.314Z,7.37
2023-02-02T01:38:59.009Z,7.41
2023-02-02T01:41:28.942Z,7.07
2023-02-02T01:44:00.196Z,7.27
2023-02-02T01:46:32.404Z,7.36
2023-02-02T01:49:05.526Z,7.37
2023-02-02T01:51:57.837Z,7.18
2023-02-02T01:54:36.474Z,7.14
2023-02-02T01:57:11.917Z,7.48
2023-02-02T01:59:40.270Z,7.25
2023-02-02T02:02:08.590Z,7.13
2023-02-02T02:04:36.695Z,7.57
2023-02-02T02:07:06.553Z,7.25
2023-02-02T02:09:34.990Z,7.39
2023-02-02T02:12:02.798Z,7.52
2023-02-02T02:14:49.124Z,7.66
2023-02-02T02:17:31.918Z,7.73
2023-02-02T02:20:42.189Z,7.57
2023-02-02T02:24:18.865Z,7.46
2023-02-02T02:26:58.758Z,7.54
2023-02-02T02:29:44.698Z,7.35
2023-02-02T02:32:52.749Z,7.36
2023-02-02T02:35:52.219Z,7.30
2023-02-02T02:38:37.082Z,7.44
2023-02-02T02:41:16.061Z,7.37
2023-02-02T02:43:56.085Z,7.46
2023-02-02T02:46:25.461Z,7.63
2023-02-02T02:48:53.983Z,7.89
2023-02-02T02:52:00.226Z,7.80
2023-02-02T02:54:43.164Z,7.85
2023-02-02T02:58:03.683Z,7.78
2023-02-02T03:00:59.213Z,7.87
2023-02-02T03:03:41.992Z,8.07
2023-02-02T03:06:20.957Z,7.87
2023-02-02T03:08:54.586Z,7.94
2023-02-02T03:11:22.606Z,7.86
2023-02-02T03:13:50.411Z,7.88
2023-02-02T03:16:18.666Z,7.93
2023-02-02T03:18:50.481Z,8.03
2023-02-02T03:21:18.416Z,7.98
2023-02-02T03:23:46.011Z,7.94
2023-02-02T03:26:13.847Z,8.25
2023-02-02T03:28:41.971Z,7.96
2023-02-02T03:31:09.890Z,8.10
2023-02-02T03:33:38.482Z,8.01
2023-02-02T03:36:06.978Z,8.12
2023-02-02T03:38:35.005Z,7.99
2023-02-02T03:41:02.574Z,8.02
2023-02-02T03:43:30.177Z,8.15
2023-02-02T03:45:59.751Z,8.10
2023-02-02T03:48:27.642Z,8.12
2023-02-02T03:50:55.475Z,8.01
2023-02-02T03:53:23.862Z,7.96
2023-02-02T03:55:51.642Z,8.20
2023-02-02T03:58:22.189Z,8.18
2023-02-02T04:00:50.181Z,8.14
2023-02-02T04:03:18.046Z,8.28
2023-02-02T04:05:49.450Z,8.16
2023-02-02T04:08:17.215Z,8.33
2023-02-02T04:10:45.003Z,8.64
2023-02-02T04:13:12.789Z,8.72
2023-02-02T04:15:40.833Z,8.78
2023-02-02T04:18:08.471Z,8.27
2023-02-02T04:20:35.969Z,8.08
2023-02-02T04:23:03.651Z,8.34
2023-02-02T04:25:31.371Z,8.23
2023-02-02T04:27:59.082Z,8.07
2023-02-02T04:30:26.796Z,8.39
2023-02-02T04:32:55.676Z,8.46
2023-02-02T04:35:23.803Z,8.47
2023-02-02T04:37:51.548Z,8.47
2023-02-02T04:40:19.773Z,8.54
2023-02-02T04:42:47.374Z,8.53
2023-02-02T04:45:15.390Z,8.50
2023-02-02T04:47:43.052Z,8.47
2023-02-02T04:50:17.205Z,8.65
2023-02-02T04:52:44.874Z,8.71
2023-02-02T04:55:12.536Z,8.71
2023-02-02T04:57:40.113Z,8.71
2023-02-02T05:00:09.917Z,8.59
2023-02-02T05:02:39.142Z,8.77
2023-02-02T05:05:10.919Z,8.91
2023-02-02T05:07:40.237Z,8.84
2023-02-02T05:10:09.837Z,8.75
2023-02-02T05:12:37.406Z,8.64
2023-02-02T05:15:05.704Z,8.79
2023-02-02T05:17:33.426Z,8.81
2023-02-02T05:20:01.000Z,8.78
2023-02-02T05:22:28.583Z,8.79
2023-02-02T05:24:56.406Z,8.89
2023-02-02T05:27:24.323Z,8.68
2023-02-02T05:29:51.976Z,8.91
2023-02-02T05:32:19.551Z,8.59
2023-02-02T05:34:47.170Z,8.82
2023-02-02T05:37:14.838Z,8.83
2023-02-02T05:39:42.467Z,8.50
2023-02-02T05:42:10.071Z,8.50
2023-02-02T05:44:37.598Z,8.35
2023-02-02T05:47:05.290Z,8.43
2023-02-02T05:49:32.854Z,8.31
2023-02-02T05:52:00.724Z,8.24
2023-02-02T05:54:28.337Z,8.22
2023-02-02T05:56:56.977Z,8.25
2023-02-02T05:59:29.334Z,8.38
2023-02-02T06:01:57.085Z,8.38
2023-02-02T06:04:24.860Z,8.40
2023-02-02T06:06:52.647Z,8.29
2023-02-02T06:09:20.272Z,8.43
2023-02-02T06:11:47.895Z,8.40
2023-02-02T06:14:15.802Z,8.17
2023-02-02T06:16:43.570Z,8.42
2023-02-02T06:19:11.299Z,8.60
2023-02-02T06:21:38.849Z,8.24
2023-02-02T06:24:07.127Z,8.51
2023-02-02T06:26:34.810Z,8.35
2023-02-02T06:29:05.326Z,8.30
2023-02-02T06:31:33.969Z,8.47
2023-02-02T06:34:01.648Z,8.37
2023-02-02T06:36:29.431Z,8.25
2023-02-02T06:38:58.359Z,8.48
2023-02-02T06:41:31.685Z,8.66
2023-02-02T06:43:59.993Z,8.63
2023-02-02T06:46:28.349Z,8.46
2023-02-02T06:48:56.304Z,8.64
2023-02-02T06:51:24.538Z,8.83
2023-02-02T06:53:52.180Z,8.59
2023-02-02T06:56:19.908Z,8.38
2023-02-02T06:58:47.511Z,8.54
2023-02-02T07:01:15.672Z,8.55
2023-02-02T07:03:43.932Z,8.65
2023-02-02T07:06:24.600Z,8.68
2023-02-02T07:09:01.959Z,8.79
2023-02-02T07:11:39.767Z,8.70
2023-02-02T07:14:12.233Z,8.80
2023-02-02T07:16:39.889Z,8.48
2023-02-02T07:19:07.630Z,8.29
2023-02-02T07:21:36.298Z,8.18
2023-02-02T07:24:06.231Z,8.29
2023-02-02T07:26:36.290Z,8.21
2023-02-02T07:29:05.192Z,7.82
2023-02-02T07:31:36.040Z,7.97
2023-02-02T07:34:04.872Z,8.01
2023-02-02T07:36:33.128Z,7.88
2023-02-02T07:39:03.960Z,8.10
2023-02-02T07:41:34.899Z,8.08
2023-02-02T07:44:04.265Z,7.75
2023-02-02T07:46:32.368Z,7.82
2023-02-02T07:49:00.138Z,7.94
2023-02-02T07:51:27.811Z,7.98
2023-02-02T07:53:58.576Z,7.81
2023-02-02T07:56:28.498Z,7.70
2023-02-02T07:58:57.416Z,7.46
2023-02-02T08:01:27.353Z,7.64
2023-02-02T08:03:58.467Z,7.63
2023-02-02T08:06:33.664Z,7.33
2023-02-02T08:09:03.646Z,7.41
2023-02-02T08:11:31.794Z,7.50
2023-02-02T08:14:01.730Z,7.74
2023-02-02T08:16:31.835Z,7.75
2023-02-02T08:19:00.327Z,8.02
2023-02-02T08:21:34.640Z,7.87
2023-02-02T08:24:03.012Z,7.71
2023-02-02T08:26:32.096Z,7.88
2023-02-02T08:29:06.974Z,7.96
2023-02-02T08:31:39.492Z,7.92
2023-02-02T08:34:07.491Z,7.77
2023-02-02T08:36:35.506Z,7.84
2023-02-02T08:39:07.114Z,7.87
2023-02-02T08:41:36.862Z,8.06
2023-02-02T08:44:15.792Z,8.10
2023-02-02T08:46:43.684Z,8.37
2023-02-02T08:49:12.733Z,8.11
2023-02-02T08:51:40.625Z,8.21
2023-02-02T08:54:08.634Z,8.18
2023-02-02T08:56:36.559Z,8.21
2023-02-02T08:59:05.379Z,8.30
2023-02-02T09:01:34.610Z,8.49
2023-02-02T09:04:15.870Z,8.49
2023-02-02T09:06:44.435Z,8.27
2023-02-02T09:09:16.030Z,8.48
2023-02-02T09:11:44.694Z,8.64
2023-02-02T09:14:14.323Z,8.34
2023-02-02T09:16:42.871Z,8.18
2023-02-02T09:19:11.934Z,8.21
2023-02-02T09:21:40.663Z,8.40
2023-02-02T09:24:13.985Z,8.37
2023-02-02T09:26:43.779Z,8.35
2023-02-02T09:29:17.876Z,8.19
2023-02-02T09:31:46.990Z,8.24
2023-02-02T09:34:15.937Z,8.24
2023-02-02T09:36:44.731Z,8.21
2023-02-02T09:39:13.144Z,8.44
2023-02-02T09:41:40.877Z,8.69
2023-02-02T09:44:35.131Z,8.78
2023-02-02T09:47:18.379Z,9.07
2023-02-02T09:50:04.239Z,9.11
2023-02-02T09:52:59.047Z,8.84
2023-02-02T09:55:39.721Z,9.01
2023-02-02T09:58:31.291Z,9.20
2023-02-02T10:01:39.133Z,8.72
2023-02-02T10:04:15.096Z,8.63
2023-02-02T10:06:55.030Z,8.86
2023-02-02T10:09:49.492Z,8.68
2023-02-02T10:12:47.366Z,8.95
2023-02-02T10:15:37.419Z,9.12
2023-02-02T10:18:49.692Z,9.28
2023-02-02T10:21:35.528Z,8.89
2023-02-02T10:24:04.550Z,8.73
2023-02-02T10:26:38.920Z,8.81
2023-02-02T10:29:48.034Z,8.90
2023-02-02T10:32:26.881Z,8.81
2023-02-02T10:35:11.102Z,8.70
2023-02-02T10:37:57.440Z,8.76
2023-02-02T10:40:43.048Z,8.88
2023-02-02T10:43:44.655Z,9.11
2023-02-02T10:46:24.673Z,9.22
2023-02-02T10:49:37.074Z,9.07
2023-02-02T10:52:31.514Z,9.35
2023-02-02T10:55:30.995Z,9.08
2023-02-02T10:58:11.741Z,8.89
2023-02-02T11:00:58.188Z,9.30
2023-02-02T11:03:30.174Z,8.78
2023-02-02T11:06:22.840Z,8.52
2023-02-02T11:08:56.711Z,8.60
2023-02-02T11:11:38.412Z,8.82
2023-02-02T11:14:09.332Z,8.55
2023-02-02T11:16:44.256Z,8.36
2023-02-02T11:19:19.740Z,8.20
2023-02-02T11:21:54.852Z,8.09
2023-02-02T11:24:36.650Z,7.92
2023-02-02T11:27:35.419Z,7.81
2023-02-02T11:30:37.748Z,7.86
2023-02-02T11:33:28.453Z,7.82
2023-02-02T11:36:03.802Z,7.85
2023-02-02T11:38:32.483Z,7.84
2023-02-02T11:41:09.042Z,8.06
2023-02-02T11:43:52.794Z,7.81
2023-02-02T11:46:31.128Z,8.02
2023-02-02T11:49:10.140Z,8.11
2023-02-02T11:51:37.999Z,7.92
2023-02-02T11:54:18.889Z,8.03
2023-02-02T11:56:53.556Z,7.92
2023-02-02T11:59:41.631Z,7.84
2023-02-02T12:02:31.179Z,7.74
2023-02-02T12:05:21.633Z,8.01
2023-02-02T12:07:49.862Z,8.02
2023-02-02T12:10:27.595Z,8.05
2023-02-02T12:13:30.801Z,7.96
2023-02-02T12:16:16.656Z,8.11
2023-02-02T12:19:25.238Z,7.83
2023-02-02T12:22:28.694Z,7.65
2023-02-02T12:25:15.237Z,7.29
2023-02-02T12:27:58.960Z,7.38
2023-02-02T12:30:39.796Z,7.51
2023-02-02T12:33:41.637Z,7.48
2023-02-02T12:36:22.321Z,7.58
2023-02-02T12:39:17.924Z,7.56
2023-02-02T12:42:23.333Z,7.65
2023-02-02T12:45:27.762Z,7.25
2023-02-02T12:48:16.602Z,7.68
2023-02-02T12:51:15.200Z,7.65
2023-02-02T12:54:32.712Z,7.78
2023-02-02T12:57:10.416Z,7.65
2023-02-02T12:59:46.917Z,7.56
2023-02-02T13:02:35.683Z,7.66
2023-02-02T13:05:28.048Z,7.68
2023-02-02T13:08:16.924Z,7.50
2023-02-02T13:10:54.342Z,7.74
2023-02-02T13:13:33.059Z,7.69
2023-02-02T13:16:10.573Z,7.53
2023-02-02T13:18:49.202Z,7.23
2023-02-02T13:21:21.474Z,7.47
2023-02-02T13:24:00.867Z,7.55
2023-02-02T13:26:38.872Z,7.36
2023-02-02T13:29:42.677Z,7.46
2023-02-02T13:32:34.805Z,7.59
2023-02-02T13:35:16.139Z,7.46
2023-02-02T13:37:51.257Z,7.54
2023-02-02T13:40:33.052Z,7.67
2023-02-02T13:43:29.385Z,7.65
2023-02-02T13:46:05.625Z,7.69
2023-02-02T13:48:48.068Z,7.69
2023-02-02T13:52:13.567Z,7.82
2023-02-02T13:55:22.544Z,8.25
2023-02-02T13:57:53.169Z,8.60
2023-02-02T14:00:30.753Z,8.75
2023-02-02T14:03:05.135Z,8.84
2023-02-02T14:05:37.722Z,8.94
2023-02-02T14:08:18.612Z,8.89
2023-02-02T14:10:57.324Z,9.01
2023-02-02T14:13:54.285Z,9.30
2023-02-02T14:16:43.195Z,9.23
2023-02-02T14:19:36.019Z,9.11
2023-02-02T14:22:17.525Z,9.23
2023-02-02T14:24:49.111Z,9.12
2023-02-02T14:27:16.771Z,9.26
2023-02-02T14:29:46.570Z,9.35
2023-02-02T14:32:29.675Z,9.36
2023-02-02T14:35:00.834Z,9.52
2023-02-02T14:37:42.039Z,9.51
2023-02-02T14:40:26.984Z,9.55
2023-02-02T14:46:35.018Z,9.59
2023-02-02T14:49:02.616Z,9.48
2023-02-02T14:51:45.960Z,9.59
2023-02-02T14:54:27.434Z,9.71
2023-02-02T14:57:04.116Z,9.63
2023-02-02T14:59:36.266Z,9.63
2023-02-02T15:02:23.910Z,9.65
2023-02-02T15:04:51.583Z,9.49
2023-02-02T15:07:25.205Z,9.64
2023-02-02T15:09:56.669Z,9.64
2023-02-02T15:12:46.102Z,9.72
2023-02-02T15:15:21.395Z,9.52
2023-02-02T15:18:24.987Z,9.55
2023-02-02T15:20:57.236Z,9.77
2023-02-02T15:23:39.338Z,9.47
2023-02-02T15:26:15.886Z,9.51
2023-02-02T15:29:16.290Z,9.71
2023-02-02T15:31:50.122Z,9.88
2023-02-02T15:34:48.257Z,9.76
2023-02-02T15:37:30.340Z,9.68
2023-02-02T15:40:02.302Z,9.45
2023-02-02T15:42:55.586Z,9.56
2023-02-02T15:45:35.473Z,9.52
2023-02-02T15:48:19.118Z,9.60
2023-02-02T15:50:51.245Z,9.50
2023-02-02T15:53:45.648Z,9.61
2023-02-02T15:56:25.172Z,9.51
2023-02-02T15:58:56.728Z,9.70
2023-02-02T16:01:27.141Z,9.64
2023-02-02T16:04:14.292Z,9.62
2023-02-02T16:06:43.111Z,9.59
2023-02-02T16:09:22.771Z,9.40
2023-02-02T16:11:51.935Z,9.50
2023-02-02T16:14:19.772Z,9.67
2023-02-02T16:16:51.197Z,9.58
2023-02-02T16:19:26.675Z,9.72
2023-02-02T16:22:09.397Z,9.64
2023-02-02T16:24:44.970Z,9.72
2023-02-02T16:27:22.026Z,9.63
2023-02-02T16:29:50.575Z,9.45
2023-02-02T16:32:33.244Z,9.36
2023-02-02T16:35:05.151Z,9.56
2023-02-02T16:37:36.432Z,9.39
2023-02-02T16:40:29.297Z,9.57
2023-02-02T16:43:17.398Z,9.63
2023-02-02T16:45:54.285Z,9.53
2023-02-02T16:48:33.182Z,9.58
2023-02-02T16:51:20.852Z,9.65
2023-02-02T16:54:03.033Z,9.12
2023-02-02T16:56:34.897Z,9.22
2023-02-02T16:59:18.335Z,9.17
2023-02-02T17:01:54.788Z,9.11
2023-02-02T17:04:35.483Z,9.23
2023-02-02T17:07:14.351Z,9.21
2023-02-02T17:09:45.266Z,9.19
2023-02-02T17:12:32.598Z,9.34
2023-02-02T17:15:40.662Z,9.46
2023-02-02T17:18:10.347Z,9.34
2023-02-02T17:20:40.170Z,9.41
2023-02-02T17:23:09.869Z,9.47
2023-02-02T17:25:43.007Z,9.37
2023-02-02T17:28:20.029Z,9.63
2023-02-02T17:31:04.109Z,9.49
2023-02-02T17:33:34.447Z,9.46
2023-02-02T17:36:03.215Z,9.38
2023-02-02T17:38:32.545Z,9.57
2023-02-02T17:41:02.087Z,9.59
2023-02-02T17:43:31.797Z,9.51
2023-02-02T17:45:59.899Z,9.50
2023-02-02T17:48:27.574Z,9.60
2023-02-02T17:50:55.225Z,9.61
2023-02-02T17:53:23.155Z,9.57
2023-02-02T17:55:52.066Z,9.55
2023-02-02T17:58:19.924Z,9.84
2023-02-02T18:00:54.781Z,9.60
2023-02-02T18:03:39.463Z,9.42
2023-02-02T18:06:09.068Z,9.40
2023-02-02T18:08:36.819Z,9.59
2023-02-02T18:11:04.619Z,9.84
2023-02-02T18:13:32.596Z,9.63
2023-02-02T18:16:00.344Z,9.52
2023-02-02T18:18:29.703Z,9.48
2023-02-02T18:20:58.877Z,9.18
2023-02-02T18:23:26.728Z,9.14
2023-02-02T18:25:54.421Z,9.30
2023-02-02T18:28:22.274Z,9.19
2023-02-02T18:30:50.056Z,9.06
2023-02-02T18:33:19.718Z,9.00
2023-02-02T18:35:48.606Z,9.15
2023-02-02T18:38:16.309Z,9.28
2023-02-02T18:40:43.979Z,9.22
2023-02-02T18:43:11.574Z,9.18
2023-02-02T18:45:39.195Z,9.21
2023-02-02T18:48:06.889Z,9.51
2023-02-02T18:50:34.635Z,9.33
2023-02-02T18:53:02.375Z,9.48
2023-02-02T18:55:29.958Z,9.43
2023-02-02T18:57:57.609Z,9.48
2023-02-02T19:00:25.410Z,9.73
2023-02-02T19:02:53.295Z,9.61
2023-02-02T19:05:39.372Z,9.62
2023-02-02T19:08:07.155Z,9.73
2023-02-02T19:10:34.785Z,9.57
2023-02-02T19:13:21.775Z,9.85
2023-02-02T19:15:50.931Z,9.62
2023-02-02T19:18:23.805Z,9.74
2023-02-02T19:20:52.552Z,9.66
2023-02-02T19:23:23.557Z,9.61
2023-02-02T19:25:56.396Z,9.38
2023-02-02T19:28:28.370Z,9.53
2023-02-02T19:31:00.747Z,9.71
2023-02-02T19:33:52.011Z,9.74
2023-02-02T19:36:25.437Z,9.48
2023-02-02T19:39:01.486Z,9.22
2023-02-02T19:41:30.865Z,9.32
2023-02-02T19:44:18.257Z,9.19
2023-02-02T19:46:49.867Z,8.91
2023-02-02T19:49:20.728Z,9.18
2023-02-02T19:51:56.389Z,8.93
2023-02-02T19:54:43.823Z,8.95
2023-02-02T19:57:11.342Z,9.23
2023-02-02T19:59:40.840Z,9.10
2023-02-02T20:02:28.950Z,9.14
2023-02-02T20:05:12.134Z,9.11
2023-02-02T20:07:39.925Z,9.20
2023-02-02T20:10:24.871Z,9.21
2023-02-02T20:12:53.705Z,9.18
2023-02-02T20:15:34.530Z,8.98
2023-02-02T20:18:06.480Z,9.18
2023-02-02T20:20:48.930Z,9.27
2023-02-02T20:23:41.069Z,8.89
2023-02-02T20:26:27.896Z,8.96
2023-02-02T20:28:59.482Z,8.44
2023-02-02T20:31:37.707Z,8.78
2023-02-02T20:34:40.377Z,8.80
2023-02-02T20:37:23.343Z,8.79
2023-02-02T20:40:20.465Z,8.67
2023-02-02T20:42:49.407Z,8.73
2023-02-02T20:45:17.888Z,8.77
2023-02-02T20:47:50.088Z,8.49
2023-02-02T20:50:21.054Z,8.57
2023-02-02T20:52:50.948Z,8.13
2023-02-02T20:55:18.761Z,8.32
2023-02-02T20:57:46.533Z,8.29
2023-02-02T21:00:17.276Z,7.58
2023-02-02T21:02:51.931Z,8.38
2023-02-02T21:05:19.851Z,8.61
2023-02-02T21:07:48.001Z,8.62
2023-02-02T21:10:16.168Z,8.80
2023-02-02T21:12:43.796Z,8.53
2023-02-02T21:15:11.560Z,8.67
2023-02-02T21:17:40.404Z,8.64
2023-02-02T21:20:12.822Z,8.49
2023-02-02T21:22:40.827Z,8.39
2023-02-02T21:25:10.244Z,8.44
2023-02-02T21:27:41.053Z,8.42
2023-02-02T21:30:14.094Z,8.61
2023-02-02T21:32:41.806Z,8.64
2023-02-02T21:35:10.300Z,8.63
2023-02-02T21:37:38.067Z,8.54
2023-02-02T21:40:15.242Z,8.70
2023-02-02T21:42:49.326Z,8.71
2023-02-02T21:45:34.680Z,8.98
2023-02-02T21:48:19.882Z,9.01
2023-02-02T21:50:48.191Z,9.12
2023-02-02T21:53:21.521Z,9.05
2023-02-02T21:55:59.757Z,8.97
2023-02-02T21:58:34.597Z,8.94
2023-02-02T22:01:39.562Z,8.67
2023-02-02T22:04:28.924Z,8.82
2023-02-02T22:07:15.350Z,9.01
2023-02-02T22:09:46.067Z,8.87
2023-02-02T22:12:16.843Z,8.94
2023-02-02T22:14:47.500Z,9.02
2023-02-02T22:17:22.261Z,9.22
2023-02-02T22:20:11.464Z,9.22
2023-02-02T22:22:45.264Z,8.37
2023-02-02T22:25:33.388Z,8.48
2023-02-02T22:28:13.230Z,8.46
2023-02-02T22:30:42.208Z,7.93
2023-02-02T22:33:12.280Z,8.30
2023-02-02T22:35:41.465Z,8.39
2023-02-02T22:38:10.378Z,8.27
2023-02-02T22:40:38.100Z,8.60
2023-02-02T22:43:07.677Z,8.67
2023-02-02T22:45:35.865Z,8.72
2023-02-02T22:48:03.969Z,8.76
2023-02-02T22:50:34.184Z,9.02
2023-02-02T22:53:03.544Z,9.00
2023-02-02T22:55:33.421Z,9.11
2023-02-02T22:58:01.287Z,9.14
2023-02-02T23:00:33.173Z,9.20
2023-02-02T23:03:01.353Z,8.84
2023-02-02T23:05:29.940Z,9.07
2023-02-02T23:07:57.600Z,9.18
2023-02-02T23:10:29.643Z,8.99
2023-02-02T23:12:59.009Z,9.06
2023-02-02T23:15:27.666Z,9.17
2023-02-02T23:18:20.005Z,8.84
2023-02-02T23:20:48.798Z,8.78
2023-02-02T23:23:17.290Z,8.57
2023-02-02T23:25:45.110Z,8.24
2023-02-02T23:28:13.239Z,8.61
2023-02-02T23:30:40.904Z,8.58
2023-02-02T23:33:08.523Z,8.53
2023-02-02T23:35:36.196Z,8.67
2023-02-02T23:38:03.790Z,8.73
2023-02-02T23:40:31.460Z,8.72
2023-02-02T23:42:58.995Z,8.38
2023-02-02T23:45:26.635Z,8.66
2023-02-02T23:47:54.432Z,8.55
2023-02-02T23:50:22.390Z,8.60
2023-02-02T23:52:50.648Z,8.52
2023-02-02T23:55:18.588Z,8.69
2023-02-02T23:57:46.350Z,8.64
